createdAt,value
2022-09-06T00:00:44.347Z,2.90
2022-09-06T00:03:11.941Z,2.80
2022-09-06T00:05:39.590Z,2.75
2022-09-06T00:08:07.269Z,3.17
2022-09-06T00:10:34.883Z,2.90
2022-09-06T00:13:07.524Z,3.50
2022-09-06T00:15:38.751Z,2.97
2022-09-06T00:18:07.743Z,3.45
2022-09-06T00:20:38.214Z,3.42
2022-09-06T00:23:05.984Z,3.60
2022-09-06T00:25:34.248Z,3.70
2022-09-06T00:28:04.345Z,3.33
2022-09-06T00:30:33.096Z,3.55
2022-09-06T00:33:00.815Z,2.95
2022-09-06T00:35:29.223Z,3.22
2022-09-06T00:37:59.123Z,3.55
2022-09-06T00:40:30.054Z,3.33
2022-09-06T00:42:58.340Z,3.00
2022-09-06T00:45:27.428Z,3.10
2022-09-06T00:47:55.411Z,3.80
2022-09-06T00:50:23.134Z,3.20
2022-09-06T00:52:52.607Z,3.55
2022-09-06T00:55:21.260Z,3.85
2022-09-06T00:57:51.423Z,3.30
2022-09-06T01:00:19.803Z,3.35
2022-09-06T01:02:48.818Z,2.92
2022-09-06T01:05:17.428Z,3.65
2022-09-06T01:08:16.607Z,2.97
2022-09-06T01:11:01.807Z,2.95
2022-09-06T01:13:49.288Z,3.35
2022-09-06T01:16:25.523Z,3.22
2022-09-06T01:19:30.375Z,3.90
2022-09-06T01:22:00.590Z,3.60
2022-09-06T01:24:57.380Z,3.08
2022-09-06T01:27:59.876Z,3.30
2022-09-06T01:30:27.598Z,3.53
2022-09-06T01:33:06.941Z,3.70
2022-09-06T01:35:41.651Z,3.40
2022-09-06T01:38:09.433Z,3.25
2022-09-06T01:40:36.855Z,2.88
2022-09-06T01:43:10.899Z,3.70
2022-09-06T01:46:03.804Z,3.40
2022-09-06T01:48:52.734Z,4.05
2022-09-06T01:52:02.651Z,3.85
2022-09-06T01:54:57.671Z,3.28
2022-09-06T01:57:34.471Z,4.13
2022-09-06T02:00:10.764Z,3.53
2022-09-06T02:03:14.793Z,4.60
2022-09-06T02:05:59.037Z,3.88
2022-09-06T02:08:33.152Z,3.13
2022-09-06T02:11:05.848Z,3.75
2022-09-06T02:14:01.419Z,3.88
2022-09-06T02:16:32.774Z,3.75
2022-09-06T02:19:08.127Z,4.28
2022-09-06T02:21:40.191Z,3.85
2022-09-06T02:24:11.906Z,3.85
2022-09-06T02:26:42.651Z,4.40
2022-09-06T02:29:10.521Z,3.97
2022-09-06T02:31:44.544Z,4.32
2022-09-06T02:34:15.530Z,4.43
2022-09-06T02:36:43.361Z,4.05
2022-09-06T02:39:11.006Z,3.83
2022-09-06T02:41:40.866Z,4.47
2022-09-06T02:44:08.592Z,3.65
2022-09-06T02:46:36.151Z,4.50
2022-09-06T02:49:03.779Z,3.72
2022-09-06T02:51:35.624Z,4.35
2022-09-06T02:54:03.164Z,3.92
2022-09-06T02:56:30.632Z,4.50
2022-09-06T02:58:58.496Z,4.38
2022-09-06T03:01:26.400Z,3.80
2022-09-06T03:03:53.911Z,4.22
2022-09-06T03:06:21.287Z,3.72
2022-09-06T03:08:48.657Z,4.65
2022-09-06T03:11:16.046Z,4.13
2022-09-06T03:13:43.359Z,4.55
2022-09-06T03:16:11.057Z,4.95
2022-09-06T03:18:38.680Z,5.18
2022-09-06T03:21:06.306Z,5.03
2022-09-06T03:23:34.379Z,5.53
2022-09-06T03:26:01.804Z,6.10
2022-09-06T03:28:29.375Z,6.07
2022-09-06T03:30:57.860Z,5.85
2022-09-06T03:33:25.449Z,5.53
2022-09-06T03:35:55.354Z,5.78
2022-09-06T03:38:23.719Z,5.65
2022-09-06T03:40:52.830Z,4.95
2022-09-06T03:43:23.073Z,5.90
2022-09-06T03:45:52.847Z,5.80
2022-09-06T03:48:22.721Z,4.55
2022-09-06T03:50:54.128Z,5.78
2022-09-06T03:53:22.870Z,5.70
2022-09-06T03:55:53.139Z,5.07
2022-09-06T03:58:22.452Z,5.72
2022-09-06T04:00:50.299Z,6.35
2022-09-06T04:03:19.424Z,5.78
2022-09-06T04:05:46.919Z,6.85
2022-09-06T04:08:14.926Z,6.72
2022-09-06T04:10:42.311Z,6.03
2022-09-06T04:13:09.715Z,5.95
2022-09-06T04:15:37.239Z,6.38
2022-09-06T04:18:09.028Z,5.72
2022-09-06T04:20:36.759Z,6.53
2022-09-06T04:23:04.455Z,5.60
2022-09-06T04:25:32.312Z,5.88
2022-09-06T04:27:59.764Z,5.97
2022-09-06T04:30:27.486Z,6.18
2022-09-06T04:32:54.939Z,5.53
2022-09-06T04:35:22.320Z,4.85
2022-09-06T04:37:49.768Z,6.22
2022-09-06T04:40:17.332Z,4.90
2022-09-06T04:42:44.957Z,5.35
2022-09-06T04:45:12.683Z,6.13
2022-09-06T04:47:40.635Z,6.15
2022-09-06T04:50:08.410Z,7.03
2022-09-06T04:52:36.068Z,6.97
2022-09-06T04:55:04.487Z,6.30
2022-09-06T04:57:33.279Z,5.53
2022-09-06T05:00:00.736Z,6.60
2022-09-06T05:02:28.493Z,5.90
2022-09-06T05:04:57.153Z,7.00
2022-09-06T05:07:25.657Z,5.80
2022-09-06T05:09:53.496Z,6.28
2022-09-06T05:12:21.883Z,6.60
2022-09-06T05:14:49.563Z,5.95
2022-09-06T05:17:17.115Z,5.68
2022-09-06T05:19:44.584Z,6.05
2022-09-06T05:22:12.439Z,5.97
2022-09-06T05:24:40.034Z,6.47
2022-09-06T05:27:07.712Z,5.97
2022-09-06T05:29:35.357Z,6.13
2022-09-06T05:32:03.063Z,6.18
2022-09-06T05:34:30.596Z,6.40
2022-09-06T05:37:00.846Z,6.07
2022-09-06T05:39:28.330Z,6.13
2022-09-06T05:41:55.877Z,6.50
2022-09-06T05:44:23.421Z,6.50
2022-09-06T05:46:50.951Z,5.47
2022-09-06T05:49:18.551Z,5.13
2022-09-06T05:51:51.620Z,6.13
2022-09-06T05:54:19.131Z,7.70
2022-09-06T05:56:46.504Z,12.18
2022-09-06T05:59:14.052Z,5.95
2022-09-06T06:01:50.792Z,5.68
2022-09-06T06:04:19.149Z,6.15
2022-09-06T06:06:47.197Z,5.53
2022-09-06T06:09:15.657Z,4.90
2022-09-06T06:11:43.251Z,5.15
2022-09-06T06:14:10.653Z,6.28
2022-09-06T06:16:38.395Z,5.38
2022-09-06T06:19:05.689Z,5.90
2022-09-06T06:21:34.233Z,5.72
2022-09-06T06:24:03.829Z,5.70
2022-09-06T06:26:34.102Z,5.60
2022-09-06T06:29:02.381Z,5.75
2022-09-06T06:31:31.335Z,4.30
2022-09-06T06:33:59.622Z,4.63
2022-09-06T06:36:30.694Z,5.15
2022-09-06T06:38:58.827Z,4.82
2022-09-06T06:41:28.904Z,5.70
2022-09-06T06:43:59.131Z,4.78
2022-09-06T06:46:29.417Z,4.70
2022-09-06T06:48:57.175Z,5.30
2022-09-06T06:51:28.320Z,4.68
2022-09-06T06:53:59.885Z,4.72
2022-09-06T06:56:30.732Z,4.25
2022-09-06T06:59:00.769Z,5.43
2022-09-06T07:01:30.866Z,4.90
2022-09-06T07:03:58.560Z,4.97
2022-09-06T07:09:18.115Z,4.15
2022-09-06T07:11:48.564Z,4.35
2022-09-06T07:14:18.581Z,4.80
2022-09-06T07:16:47.096Z,5.20
2022-09-06T07:22:04.991Z,4.22
2022-09-06T07:24:34.195Z,4.85
2022-09-06T07:29:50.059Z,4.07
2022-09-06T07:32:17.690Z,4.38
2022-09-06T07:34:45.348Z,5.15
2022-09-06T07:37:12.973Z,4.88
2022-09-06T07:39:41.364Z,4.65
2022-09-06T07:42:09.597Z,4.47
2022-09-06T07:44:37.507Z,5.15
2022-09-06T07:55:30.657Z,4.22
2022-09-06T07:57:58.582Z,4.38
2022-09-06T08:00:26.619Z,4.82
2022-09-06T08:02:54.868Z,4.63
2022-09-06T08:10:57.819Z,4.50
2022-09-06T08:13:25.824Z,4.60
2022-09-06T08:16:08.286Z,4.95
2022-09-06T08:18:37.135Z,9.75
2022-09-06T08:21:15.871Z,4.35
2022-09-06T08:23:49.126Z,7.65
2022-09-06T08:26:18.124Z,5.05
2022-09-06T08:28:45.608Z,4.43
2022-09-06T08:31:15.601Z,4.63
2022-09-06T08:33:44.587Z,5.53
2022-09-06T08:36:13.727Z,5.38
2022-09-06T08:38:41.515Z,5.03
2022-09-06T08:41:17.956Z,5.53
2022-09-06T08:47:06.145Z,5.47
2022-09-06T08:49:44.875Z,4.75
2022-09-06T08:52:25.723Z,4.72
2022-09-06T08:55:19.444Z,5.07
2022-09-06T08:58:02.904Z,5.03
2022-09-06T09:00:31.701Z,4.82
2022-09-06T09:03:17.213Z,4.35
2022-09-06T09:05:49.889Z,4.93
2022-09-06T09:09:04.172Z,4.93
2022-09-06T09:11:33.621Z,4.50
2022-09-06T09:14:06.063Z,4.38
2022-09-06T09:16:34.350Z,6.28
2022-09-06T09:19:04.673Z,4.30
2022-09-06T09:21:36.925Z,4.80
2022-09-06T09:24:10.728Z,4.70
2022-09-06T09:26:49.461Z,5.68
2022-09-06T09:29:17.425Z,4.55
2022-09-06T09:31:53.596Z,5.30
2022-09-06T09:34:40.434Z,4.80
2022-09-06T09:40:30.127Z,5.47
2022-09-06T09:43:20.795Z,6.30
2022-09-06T09:46:09.860Z,5.10
2022-09-06T09:48:38.496Z,5.10
2022-09-06T09:51:27.142Z,5.07
2022-09-06T09:53:57.871Z,5.70
2022-09-06T09:56:50.320Z,5.00
2022-09-06T09:59:19.379Z,5.75
2022-09-06T10:01:47.207Z,5.47
2022-09-06T10:07:15.146Z,5.25
2022-09-06T10:09:46.319Z,4.25
2022-09-06T10:12:18.128Z,5.60
2022-09-06T10:14:48.722Z,4.53
2022-09-06T10:17:51.229Z,5.00
2022-09-06T10:20:18.940Z,4.53
2022-09-06T10:22:49.018Z,4.80
2022-09-06T10:25:45.099Z,3.65
2022-09-06T10:28:42.580Z,3.95
2022-09-06T10:31:19.430Z,4.75
2022-09-06T10:33:58.976Z,4.22
2022-09-06T10:36:40.344Z,3.97
2022-09-06T10:39:41.544Z,4.45
2022-09-06T10:42:34.931Z,4.35
2022-09-06T10:45:20.892Z,4.78
2022-09-06T10:48:02.521Z,3.90
2022-09-06T10:50:56.516Z,6.90
2022-09-06T10:53:30.643Z,3.53
2022-09-06T10:56:20.949Z,3.28
2022-09-06T11:02:32.745Z,3.55
2022-09-06T11:11:23.450Z,2.72
2022-09-06T11:13:50.974Z,3.53
2022-09-06T11:16:28.364Z,2.97
2022-09-06T11:19:07.741Z,3.58
2022-09-06T11:22:09.789Z,3.20
2022-09-06T11:25:28.840Z,3.58
2022-09-06T11:28:01.236Z,3.60
2022-09-06T11:30:30.147Z,3.67
2022-09-06T11:33:35.406Z,3.20
2022-09-06T11:36:37.952Z,3.28
2022-09-06T11:39:08.926Z,3.65
2022-09-06T11:41:40.099Z,3.17
2022-09-06T11:44:10.982Z,4.00
2022-09-06T11:46:41.277Z,3.00
2022-09-06T11:49:27.316Z,3.10
2022-09-06T11:51:55.183Z,3.10
2022-09-06T11:54:40.967Z,2.85
2022-09-06T11:57:12.549Z,3.00
2022-09-06T11:59:47.721Z,3.85
2022-09-06T12:02:36.318Z,3.67
2022-09-06T12:05:07.501Z,3.63
2022-09-06T12:07:59.337Z,3.13
2022-09-06T12:10:31.005Z,2.88
2022-09-06T12:12:58.968Z,3.28
2022-09-06T12:15:32.890Z,2.75
2022-09-06T12:18:00.676Z,3.25
2022-09-06T12:20:51.184Z,3.10
2022-09-06T12:23:36.908Z,4.05
2022-09-06T12:26:42.597Z,4.20
2022-09-06T12:29:11.351Z,3.33
2022-09-06T12:31:42.335Z,2.85
2022-09-06T12:34:22.848Z,3.15
2022-09-06T12:37:07.247Z,2.95
2022-09-06T12:39:34.894Z,2.80
2022-09-06T12:42:03.981Z,3.42
2022-09-06T12:44:57.880Z,2.50
2022-09-06T12:47:29.056Z,3.00
2022-09-06T12:50:17.857Z,2.50
2022-09-06T12:52:46.868Z,3.42
2022-09-06T12:55:27.605Z,3.08
2022-09-06T12:58:00.737Z,2.55
2022-09-06T13:00:37.521Z,3.17
2022-09-06T13:03:16.610Z,3.10
2022-09-06T13:05:45.712Z,2.60
2022-09-06T13:08:17.473Z,3.10
2022-09-06T13:10:46.527Z,2.42
2022-09-06T13:13:22.235Z,2.38
2022-09-06T13:15:49.990Z,2.47
2022-09-06T13:18:22.693Z,2.50
2022-09-06T13:21:03.968Z,2.63
2022-09-06T13:23:42.064Z,1.63
2022-09-06T13:26:10.159Z,2.17
2022-09-06T13:28:38.149Z,2.47
2022-09-06T13:31:09.678Z,2.38
2022-09-06T13:33:37.773Z,2.40
2022-09-06T13:36:11.092Z,1.90
2022-09-06T13:38:38.472Z,2.28
2022-09-06T13:41:25.838Z,2.00
2022-09-06T13:44:16.815Z,2.03
2022-09-06T13:46:44.574Z,1.95
2022-09-06T13:49:12.129Z,2.03
2022-09-06T13:51:41.935Z,2.08
2022-09-06T13:54:11.555Z,1.92
2022-09-06T13:56:39.683Z,2.45
2022-09-06T13:59:10.496Z,2.17
2022-09-06T14:01:43.741Z,2.53
2022-09-06T14:04:19.699Z,2.75
2022-09-06T14:06:48.460Z,2.40
2022-09-06T14:09:16.109Z,2.17
2022-09-06T14:11:47.988Z,1.85
2022-09-06T14:14:17.849Z,2.88
2022-09-06T14:16:47.541Z,2.58
2022-09-06T14:19:15.403Z,2.50
2022-09-06T14:21:43.321Z,2.63
2022-09-06T14:24:10.854Z,2.28
2022-09-06T14:26:39.411Z,2.33
2022-09-06T14:29:08.063Z,2.00
2022-09-06T14:31:35.688Z,2.40
2022-09-06T14:34:04.012Z,2.28
2022-09-06T14:36:33.243Z,2.33
2022-09-06T14:39:01.985Z,1.95
2022-09-06T14:41:29.811Z,2.15
2022-09-06T14:43:58.882Z,2.80
2022-09-06T14:46:28.500Z,2.20
2022-09-06T14:49:01.828Z,1.83
2022-09-06T14:51:30.526Z,1.88
2022-09-06T14:54:02.906Z,2.20
2022-09-06T14:56:30.835Z,2.70
2022-09-06T14:58:59.976Z,2.72
2022-09-06T15:01:37.802Z,2.30
2022-09-06T15:04:08.200Z,3.28
2022-09-06T15:06:39.155Z,2.25
2022-09-06T15:09:07.907Z,2.45
2022-09-06T15:11:41.419Z,2.20
2022-09-06T15:14:20.247Z,1.95
2022-09-06T15:16:54.801Z,3.63
2022-09-06T15:19:24.697Z,1.92
2022-09-06T15:21:52.555Z,1.95
2022-09-06T15:24:20.782Z,2.10
2022-09-06T15:26:48.703Z,2.53
2022-09-06T15:29:16.604Z,2.92
2022-09-06T15:31:50.125Z,2.58
2022-09-06T15:34:20.085Z,1.98
2022-09-06T15:36:48.315Z,2.35
2022-09-06T15:39:16.381Z,1.95
2022-09-06T15:41:44.343Z,2.15
2022-09-06T15:44:14.832Z,2.17
2022-09-06T15:46:47.158Z,2.35
2022-09-06T15:49:28.406Z,2.15
2022-09-06T15:51:57.391Z,2.28
2022-09-06T15:54:45.288Z,2.10
2022-09-06T15:57:14.363Z,1.70
2022-09-06T15:59:42.721Z,2.20
2022-09-06T16:02:11.416Z,2.80
2022-09-06T16:04:39.019Z,2.92
2022-09-06T16:07:07.258Z,2.80
2022-09-06T16:09:35.011Z,3.97
2022-09-06T16:12:02.674Z,2.65
2022-09-06T16:14:30.394Z,2.92
2022-09-06T16:16:57.831Z,2.40
2022-09-06T16:19:26.586Z,2.72
2022-09-06T16:21:54.302Z,2.50
2022-09-06T16:24:23.277Z,2.95
2022-09-06T16:26:51.071Z,2.67
2022-09-06T16:29:19.172Z,2.28
2022-09-06T16:31:47.471Z,2.15
2022-09-06T16:34:15.755Z,2.75
2022-09-06T16:36:43.500Z,2.05
2022-09-06T16:39:11.139Z,2.35
2022-09-06T16:41:44.205Z,2.30
2022-09-06T16:44:17.611Z,1.63
2022-09-06T16:46:49.377Z,1.45
2022-09-06T16:49:19.105Z,2.28
2022-09-06T16:51:48.148Z,2.05
2022-09-06T16:54:18.533Z,2.03
2022-09-06T16:56:46.185Z,2.47
2022-09-06T16:59:17.435Z,2.15
2022-09-06T17:01:45.587Z,1.98
2022-09-06T17:04:13.865Z,1.90
2022-09-06T17:06:45.455Z,2.00
2022-09-06T17:09:15.819Z,1.73
2022-09-06T17:11:43.329Z,1.55
2022-09-06T17:14:10.904Z,2.60
2022-09-06T17:16:57.048Z,2.08
2022-09-06T17:19:24.829Z,2.13
2022-09-06T17:21:52.662Z,2.10
2022-09-06T17:24:20.512Z,2.53
2022-09-06T17:26:48.496Z,2.63
2022-09-06T17:29:16.240Z,1.98
2022-09-06T17:31:44.035Z,1.77
2022-09-06T17:34:11.821Z,2.03
2022-09-06T17:36:39.729Z,2.22
2022-09-06T17:39:20.841Z,2.17
2022-09-06T17:41:53.607Z,2.28
2022-09-06T17:44:25.355Z,2.40
2022-09-06T17:47:11.926Z,2.80
2022-09-06T17:49:40.578Z,1.77
2022-09-06T17:52:08.122Z,2.38
2022-09-06T17:54:35.800Z,2.55
2022-09-06T17:57:03.821Z,2.30
2022-09-06T17:59:35.020Z,3.05
2022-09-06T18:02:04.488Z,2.72
2022-09-06T18:04:32.415Z,2.67
2022-09-06T18:07:00.294Z,3.25
2022-09-06T18:09:28.297Z,3.05
2022-09-06T18:11:55.933Z,2.97
2022-09-06T18:14:23.730Z,3.03
2022-09-06T18:16:52.376Z,3.35
2022-09-06T18:19:21.081Z,3.75
2022-09-06T18:21:48.956Z,3.78
2022-09-06T18:24:16.663Z,3.53
2022-09-06T18:26:44.858Z,3.08
2022-09-06T18:29:14.757Z,3.10
2022-09-06T18:31:43.470Z,2.92
2022-09-06T18:34:12.340Z,3.28
2022-09-06T18:36:40.440Z,3.58
2022-09-06T18:39:08.108Z,3.33
2022-09-06T18:41:54.380Z,3.65
2022-09-06T18:44:22.320Z,3.83
2022-09-06T18:46:50.286Z,2.55
2022-09-06T18:49:18.420Z,3.65
2022-09-06T18:51:45.908Z,3.40
2022-09-06T18:54:14.638Z,3.40
2022-09-06T18:56:44.692Z,3.95
2022-09-06T18:59:13.741Z,4.97
2022-09-06T19:01:45.184Z,4.40
2022-09-06T19:04:13.035Z,4.03
2022-09-06T19:06:43.136Z,5.47
2022-09-06T19:09:14.115Z,4.07
2022-09-06T19:11:45.478Z,4.40
2022-09-06T19:14:13.740Z,4.60
2022-09-06T19:16:42.117Z,4.18
2022-09-06T19:19:11.769Z,4.38
2022-09-06T19:21:42.230Z,4.50
2022-09-06T19:24:11.870Z,4.55
2022-09-06T19:26:42.667Z,4.90
2022-09-06T19:29:15.709Z,4.55
2022-09-06T19:31:44.722Z,4.15
2022-09-06T19:34:13.629Z,4.57
2022-09-06T19:36:41.834Z,5.38
2022-09-06T19:39:13.131Z,5.05
2022-09-06T19:41:46.502Z,4.55
2022-09-06T19:44:16.373Z,4.07
2022-09-06T19:46:46.588Z,4.40
2022-09-06T19:49:16.755Z,5.20
2022-09-06T19:51:46.499Z,4.22
2022-09-06T19:54:15.671Z,5.43
2022-09-06T19:56:44.177Z,5.68
2022-09-06T19:59:12.871Z,4.20
2022-09-06T20:01:42.471Z,4.55
2022-09-06T20:04:11.673Z,5.03
2022-09-06T20:06:39.455Z,4.10
2022-09-06T20:09:09.353Z,3.83
2022-09-06T20:11:39.105Z,4.32
2022-09-06T20:14:06.782Z,4.45
2022-09-06T20:16:37.097Z,4.47
2022-09-06T20:19:08.267Z,4.13
2022-09-06T20:21:36.014Z,4.30
2022-09-06T20:24:04.007Z,4.15
2022-09-06T20:26:31.608Z,4.13
2022-09-06T20:29:03.405Z,3.97
2022-09-06T20:31:32.409Z,4.03
2022-09-06T20:34:01.900Z,4.07
2022-09-06T20:36:30.052Z,4.85
2022-09-06T20:38:57.774Z,4.28
2022-09-06T20:41:26.419Z,3.80
2022-09-06T20:43:58.312Z,4.47
2022-09-06T20:46:28.493Z,4.30
2022-09-06T20:48:57.965Z,4.35
2022-09-06T20:51:26.120Z,4.00
2022-09-06T20:53:56.308Z,3.72
2022-09-06T20:56:33.601Z,3.95
2022-09-06T20:59:03.307Z,4.72
2022-09-06T21:01:34.594Z,4.68
2022-09-06T21:04:04.632Z,4.50
2022-09-06T21:06:36.634Z,4.78
2022-09-06T21:09:06.496Z,4.25
2022-09-06T21:11:34.695Z,4.07
2022-09-06T21:14:03.679Z,4.22
2022-09-06T21:16:31.875Z,4.50
2022-09-06T21:19:05.360Z,3.95
2022-09-06T21:21:34.765Z,4.45
2022-09-06T21:24:03.854Z,4.65
2022-09-06T21:26:31.829Z,3.72
2022-09-06T21:28:59.502Z,3.83
2022-09-06T21:31:30.157Z,4.03
2022-09-06T21:34:01.327Z,4.00
2022-09-06T21:36:37.908Z,3.83
2022-09-06T21:39:09.674Z,4.32
2022-09-06T21:41:39.173Z,4.03
2022-09-06T21:44:07.906Z,3.90
2022-09-06T21:46:37.462Z,4.05
2022-09-06T21:49:08.184Z,4.90
2022-09-06T21:51:36.631Z,5.30
2022-09-06T21:54:06.029Z,5.00
2022-09-06T21:56:35.954Z,4.18
2022-09-06T21:59:04.686Z,4.32
2022-09-06T22:01:34.823Z,5.05
2022-09-06T22:04:03.946Z,5.00
2022-09-06T22:06:33.336Z,5.25
2022-09-06T22:09:04.160Z,4.47
2022-09-06T22:11:34.146Z,4.40
2022-09-06T22:14:04.156Z,4.68
2022-09-06T22:16:33.889Z,4.75
2022-09-06T22:19:04.300Z,4.45
2022-09-06T22:21:33.185Z,4.15
2022-09-06T22:24:06.005Z,5.35
2022-09-06T22:26:35.375Z,5.07
2022-09-06T22:29:06.496Z,4.72
2022-09-06T22:31:35.636Z,4.00
2022-09-06T22:34:04.134Z,4.35
2022-09-06T22:36:32.314Z,4.28
2022-09-06T22:39:00.076Z,4.57
2022-09-06T22:41:30.379Z,4.05
2022-09-06T22:44:00.296Z,4.57
2022-09-06T22:46:28.521Z,4.90
2022-09-06T22:48:56.364Z,5.00
2022-09-06T22:51:24.394Z,4.43
2022-09-06T22:53:51.963Z,4.80
2022-09-06T22:56:19.814Z,4.70
2022-09-06T22:58:47.656Z,4.32
2022-09-06T23:01:16.485Z,4.80
2022-09-06T23:03:44.561Z,3.97
2022-09-06T23:06:12.216Z,4.20
2022-09-06T23:08:40.960Z,4.55
2022-09-06T23:11:11.738Z,4.50
2022-09-06T23:13:43.679Z,4.72
2022-09-06T23:16:14.620Z,4.65
2022-09-06T23:18:42.909Z,4.47
2022-09-06T23:21:13.803Z,4.25
2022-09-06T23:23:42.347Z,5.50
2022-09-06T23:26:15.676Z,4.70
2022-09-06T23:28:44.188Z,6.07
2022-09-06T23:31:14.492Z,4.72
2022-09-06T23:33:42.300Z,5.05
2022-09-06T23:36:14.484Z,5.53
2022-09-06T23:38:42.992Z,4.57
2022-09-06T23:41:10.848Z,5.22
2022-09-06T23:43:39.739Z,4.55
2022-09-06T23:46:10.742Z,4.68
2022-09-06T23:48:38.588Z,4.45
2022-09-06T23:51:06.064Z,5.57
2022-09-06T23:53:33.847Z,5.70
2022-09-06T23:56:01.483Z,4.68
2022-09-06T23:58:29.198Z,4.95
